Time;durP1;ratioP1;P1;durP2;ratioP2;P2;SDS_P1;SDS_P2;PMS_P1;PMS_P2;Temp;Humidity;BMP_temperature;BMP_pressure;BME280_temperature;BME280_humidity;BME280_pressure;Samples;Min_cycle;Max_cycle;Signal;HPM_P1;HPM_P2
2022/06/06 00:02:13;;;;;;;;;;;;;;;23.00;35.25;99056.78;4482159;32;34902;-83
2022/06/06 00:04:40;;;;;;;;;;;;;;;23.73;34.25;99066.16;4478623;32;34267;-83
2022/06/06 00:07:07;;;;;;;;;;;;;;;23.60;34.42;99063.16;4478263;31;33030;-85
2022/06/06 00:09:35;;;;;;;;;;;;;;;23.38;34.04;99078.19;4491768;31;33824;-83
2022/06/06 00:12:03;;;;;;;;;;;;;;;23.69;34.16;99073.38;4468164;32;35329;-83
2022/06/06 00:14:31;;;;;;;;;;;;;;;23.97;33.42;99064.22;4453379;32;34117;-84
2022/06/06 00:16:58;;;;;;;;;;;;;;;23.37;34.55;99061.44;4477932;32;33083;-83
2022/06/06 00:19:26;;;;;;;;;;;;;;;24.31;32.86;99065.41;4464757;32;34235;-82
2022/06/06 00:21:53;;;;;;;;;;;;;;;23.11;35.11;99070.44;4453653;32;35163;-82
2022/06/06 00:24:20;;;;;;;;;;;;;;;22.94;35.58;99063.16;4453140;32;35211;-84
2022/06/06 00:26:48;;;;;;;;;;;;;;;24.27;33.21;99060.22;4467120;32;32771;-85
2022/06/06 00:29:16;;;;;;;;;;;;;;;23.81;34.04;99063.19;4452652;32;32371;-82
2022/06/06 00:37:26;;;;;;;;;;;;;;;24.24;33.31;99076.28;4443622;32;32728;-84
2022/06/06 00:39:54;;;;;;;;;;;;;;;25.19;32.16;99076.34;4467542;32;34646;-82
2022/06/06 00:42:26;;;;;;;;;;;;;;;23.90;33.91;99086.59;4453210;32;35716;-82
2022/06/06 00:45:12;;;;;;;;;;;;;;;23.86;34.14;99088.53;4467145;32;34375;-83
2022/06/06 00:47:40;;;;;;;;;;;;;;;24.08;33.94;99101.69;4466425;32;33577;-83
2022/06/06 00:50:12;;;;;;;;;;;;;;;25.20;32.43;99092.22;4453249;32;33826;-85
2022/06/06 00:52:40;;;;;;;;;;;;;;;24.63;33.10;99103.75;4452910;32;34890;-84
2022/06/06 00:55:13;;;;;;;;;;;;;;;24.84;32.56;99108.03;4453132;32;33361;-85
2022/06/06 00:57:45;;;;;;;;;;;;;;;25.26;32.16;99114.06;4453224;32;33221;-84
2022/06/06 01:00:13;;;;;;;;;;;;;;;26.35;30.66;99122.75;4450119;32;34162;-84
2022/06/06 01:02:42;;;;;;;;;;;;;;;26.58;30.93;99129.56;4452646;32;35190;-84
2022/06/06 01:05:09;;;;;;;;;;;;;;;26.47;30.09;99137.22;4453067;32;34301;-83
2022/06/06 01:07:36;;;;;;;;;;;;;;;26.67;29.89;99135.25;4466538;32;33669;-83
2022/06/06 01:10:04;;;;;;;;;;;;;;;26.35;30.62;99138.72;4455461;32;35027;-83
2022/06/06 01:12:31;;;;;;;;;;;;;;;25.89;31.29;99119.81;4466909;32;34387;-82
2022/06/06 01:15:01;;;;;;;;;;;;;;;25.65;31.62;99122.75;4466809;32;34531;-82
2022/06/06 01:17:35;;;;;;;;;;;;;;;25.13;32.74;99133.22;4475569;31;34493;-82
2022/06/06 01:20:05;;;;;;;;;;;;;;;25.22;32.48;99130.13;4476596;32;34243;-80
2022/06/06 01:22:50;;;;;;;;;;;;;;;24.44;33.77;99135.50;4482569;32;34187;-83
2022/06/06 01:25:37;;;;;;;;;;;;;;;25.03;32.97;99142.50;4477413;32;35208;-80
2022/06/06 01:28:23;;;;;;;;;;;;;;;24.54;33.87;99142.09;4474948;32;34570;-82
2022/06/06 01:30:51;;;;;;;;;;;;;;;24.62;33.80;99137.31;4476430;32;34110;-84
2022/06/06 01:33:19;;;;;;;;;;;;;;;25.54;32.68;99133.03;4471243;32;34258;-84
2022/06/06 01:35:47;;;;;;;;;;;;;;;25.92;31.99;99131.16;4466581;32;34340;-84
2022/06/06 01:38:15;;;;;;;;;;;;;;;25.88;32.17;99142.03;4453534;32;34188;-85
2022/06/06 01:40:45;;;;;;;;;;;;;;;26.19;31.82;99159.91;4465777;32;33914;-83
2022/06/06 01:43:16;;;;;;;;;;;;;;;26.69;31.46;99165.25;4452788;32;35295;-84
2022/06/06 01:45:55;;;;;;;;;;;;;;;26.25;31.51;99169.34;4455384;32;34136;-85
2022/06/06 01:48:23;;;;;;;;;;;;;;;26.34;32.00;99182.19;4482338;32;34314;-85
2022/06/06 01:50:51;;;;;;;;;;;;;;;26.69;31.65;99202.50;4470039;32;35326;-85
2022/06/06 01:53:20;;;;;;;;;;;;;;;26.38;32.33;99219.16;4484190;32;34403;-85
2022/06/06 01:55:48;;;;;;;;;;;;;;;26.28;32.40;99248.94;4483777;32;34748;-84
2022/06/06 01:58:28;;;;;;;;;;;;;;;25.70;33.30;99264.09;4470054;32;33104;-83
2022/06/06 02:00:56;;;;;;;;;;;;;;;24.61;35.23;99286.69;4469731;32;35011;-84
2022/06/06 02:03:23;;;;;;;;;;;;;;;25.10;34.43;99299.63;4472529;32;35113;-84
2022/06/06 02:05:51;;;;;;;;;;;;;;;26.30;32.76;99300.22;4469969;32;35102;-85
2022/06/06 02:08:19;;;;;;;;;;;;;;;26.89;32.16;99288.34;4474100;32;33312;-84
2022/06/06 02:10:46;;;;;;;;;;;;;;;27.24;32.25;99281.22;4480835;32;33949;-84
2022/06/06 02:13:14;;;;;;;;;;;;;;;27.50;31.49;99274.44;4484337;32;34839;-83
2022/06/06 02:15:41;;;;;;;;;;;;;;;27.59;31.47;99267.78;4484109;32;35144;-84
2022/06/06 02:18:09;;;;;;;;;;;;;;;27.83;31.20;99258.44;4469861;32;34389;-85
2022/06/06 02:20:36;;;;;;;;;;;;;;;28.04;30.85;99242.19;4474591;32;34140;-85
2022/06/06 02:23:03;;;;;;;;;;;;;;;28.01;30.64;99235.22;4454205;32;35091;-83
2022/06/06 02:25:31;;;;;;;;;;;;;;;28.02;31.17;99239.59;4468163;32;34183;-85
2022/06/06 02:27:59;;;;;;;;;;;;;;;27.94;31.35;99230.31;4454326;32;33162;-85
2022/06/06 02:30:31;;;;;;;;;;;;;;;27.82;31.21;99237.22;4475800;32;34310;-85
2022/06/06 02:32:59;;;;;;;;;;;;;;;27.58;31.67;99252.75;4484019;32;33669;-85
2022/06/06 02:35:31;;;;;;;;;;;;;;;27.75;31.22;99249.16;4469764;32;34341;-86
2022/06/06 02:37:58;;;;;;;;;;;;;;;27.84;30.98;99251.28;4455808;32;34266;-84
2022/06/06 02:40:26;;;;;;;;;;;;;;;27.76;30.91;99249.06;4471523;31;33891;-85
2022/06/06 02:42:54;;;;;;;;;;;;;;;27.78;31.29;99257.84;4485518;31;34537;-85
2022/06/06 02:45:21;;;;;;;;;;;;;;;27.44;31.57;99250.84;4499522;31;35261;-85
2022/06/06 02:47:50;;;;;;;;;;;;;;;27.48;31.71;99241.75;4486068;31;34439;-85
2022/06/06 02:50:19;;;;;;;;;;;;;;;27.30;32.45;99234.75;4469677;32;34520;-84
2022/06/06 02:52:46;;;;;;;;;;;;;;;27.40;32.02;99231.53;4483647;32;34286;-84
2022/06/06 02:55:14;;;;;;;;;;;;;;;27.55;31.64;99234.28;4483946;32;34502;-85
2022/06/06 02:57:43;;;;;;;;;;;;;;;27.80;31.79;99241.75;4483001;32;33639;-84
2022/06/06 03:00:11;;;;;;;;;;;;;;;27.97;31.56;99233.69;4468542;32;34171;-84
2022/06/06 03:02:39;;;;;;;;;;;;;;;28.07;31.47;99241.97;4483831;32;35669;-84
2022/06/06 03:05:06;;;;;;;;;;;;;;;28.04;31.31;99237.72;4483970;32;35547;-83
2022/06/06 03:07:53;;;;;;;;;;;;;;;27.88;31.53;99237.75;4473516;32;33128;-83
2022/06/06 03:10:21;;;;;;;;;;;;;;;28.03;31.47;99232.44;4469965;32;33833;-84
2022/06/06 03:12:51;;;;;;;;;;;;;;;28.07;31.73;99226.88;4467955;32;34212;-84
2022/06/06 03:15:25;;;;;;;;;;;;;;;28.07;31.55;99226.88;4469121;32;34566;-84
2022/06/06 03:20:46;;;;;;;;;;;;;;;28.06;32.04;99224.28;4471227;32;33933;-84
2022/06/06 03:23:14;;;;;;;;;;;;;;;27.79;32.52;99221.41;4483470;32;34135;-83
2022/06/06 03:25:45;;;;;;;;;;;;;;;27.81;32.47;99215.06;4483079;32;35086;-84
2022/06/06 03:28:23;;;;;;;;;;;;;;;27.86;32.56;99206.78;4469409;32;33214;-83
2022/06/06 03:30:50;;;;;;;;;;;;;;;27.79;32.54;99205.41;4483820;32;33754;-84
2022/06/06 03:33:24;;;;;;;;;;;;;;;27.78;32.55;99199.25;4483385;32;35189;-84
2022/06/06 03:36:10;;;;;;;;;;;;;;;27.96;32.28;99204.44;4482887;32;34532;-84
2022/06/06 03:38:42;;;;;;;;;;;;;;;27.67;32.89;99195.44;4483587;32;34404;-82
2022/06/06 03:41:16;;;;;;;;;;;;;;;27.63;33.25;99190.28;4475650;31;33659;-83
2022/06/06 03:43:55;;;;;;;;;;;;;;;26.82;34.38;99185.87;4499201;31;34176;-84
2022/06/06 03:46:33;;;;;;;;;;;;;;;27.54;32.97;99174.84;4462098;32;33897;-84
2022/06/06 03:49:00;;;;;;;;;;;;;;;27.79;32.71;99170.78;4483498;32;34341;-84
2022/06/06 03:51:36;;;;;;;;;;;;;;;27.98;32.50;99168.75;4483402;32;33957;-83
2022/06/06 03:54:04;;;;;;;;;;;;;;;27.54;33.12;99153.53;4469336;32;34333;-84
2022/06/06 03:56:45;;;;;;;;;;;;;;;27.84;32.91;99150.06;4473262;32;34732;-84
2022/06/06 03:59:12;;;;;;;;;;;;;;;27.58;32.50;99154.22;4470743;32;33796;-84
2022/06/06 04:01:40;;;;;;;;;;;;;;;27.89;32.29;99161.31;4483346;32;34084;-84
2022/06/06 04:04:07;;;;;;;;;;;;;;;27.74;32.68;99156.84;4469210;32;35095;-83
2022/06/06 04:06:35;;;;;;;;;;;;;;;27.47;32.68;99153.97;4468530;32;35248;-84
2022/06/06 04:09:02;;;;;;;;;;;;;;;27.06;32.93;99175.72;4483438;32;34277;-84
2022/06/06 04:11:30;;;;;;;;;;;;;;;26.80;33.34;99178.00;4468937;32;34720;-83
2022/06/06 04:14:04;;;;;;;;;;;;;;;26.84;33.79;99182.19;4483076;32;34897;-84
2022/06/06 04:16:47;;;;;;;;;;;;;;;26.65;34.01;99187.66;4473754;32;35289;-84
2022/06/06 04:19:28;;;;;;;;;;;;;;;26.21;34.86;99189.91;4479312;32;33984;-84
2022/06/06 04:21:59;;;;;;;;;;;;;;;26.16;35.29;99192.81;4466361;32;34230;-84
2022/06/06 04:24:29;;;;;;;;;;;;;;;25.15;36.80;99199.47;4477804;32;35155;-85
2022/06/06 04:26:58;;;;;;;;;;;;;;;26.04;35.17;99198.75;4478027;32;35070;-85
2022/06/06 04:29:41;;;;;;;;;;;;;;;26.73;34.44;99200.53;4468590;32;35980;-82
2022/06/06 04:32:14;;;;;;;;;;;;;;;26.96;34.26;99201.97;4472154;32;35149;-85
2022/06/06 04:35:01;;;;;;;;;;;;;;;27.39;33.91;99205.00;4456835;32;34346;-84
2022/06/06 04:37:35;;;;;;;;;;;;;;;27.48;33.24;99200.94;4455165;32;35062;-84
2022/06/06 04:40:05;;;;;;;;;;;;;;;27.76;33.71;99201.13;4468591;32;33407;-83
2022/06/06 04:42:39;;;;;;;;;;;;;;;27.89;34.04;99207.47;4468509;32;35195;-83
2022/06/06 04:45:34;;;;;;;;;;;;;;;27.63;34.67;99211.59;4482973;32;35165;-84
2022/06/06 04:48:04;;;;;;;;;;;;;;;27.79;34.64;99208.09;4464784;32;34046;-84
2022/06/06 04:50:32;;;;;;;;;;;;;;;27.80;34.57;99209.78;4482961;32;33659;-83
2022/06/06 04:53:00;;;;;;;;;;;;;;;27.97;34.53;99212.34;4462935;32;35083;-84
2022/06/06 04:55:29;;;;;;;;;;;;;;;27.93;34.89;99218.81;4453058;32;34400;-84
2022/06/06 04:57:56;;;;;;;;;;;;;;;27.99;35.12;99218.44;4455872;32;34384;-85
2022/06/06 05:00:27;;;;;;;;;;;;;;;28.22;34.76;99222.41;4468615;32;34315;-85
2022/06/06 05:02:54;;;;;;;;;;;;;;;28.27;34.57;99223.03;4482236;32;34659;-85
2022/06/06 05:05:21;;;;;;;;;;;;;;;28.35;34.64;99222.59;4457915;32;781661;-85
2022/06/06 05:08:03;;;;;;;;;;;;;;;28.55;34.93;99227.59;4476099;32;35268;-84
2022/06/06 05:10:43;;;;;;;;;;;;;;;28.62;34.84;99223.63;4466770;32;33674;-84
2022/06/06 05:13:10;;;;;;;;;;;;;;;28.78;35.13;99223.53;4452668;32;34989;-84
2022/06/06 05:15:50;;;;;;;;;;;;;;;29.02;34.76;99223.03;4466486;32;35244;-84
2022/06/06 05:18:22;;;;;;;;;;;;;;;28.90;34.65;99226.41;4466891;32;34642;-84
2022/06/06 05:21:09;;;;;;;;;;;;;;;28.49;36.10;99225.31;4452465;32;34061;-83
2022/06/06 05:23:48;;;;;;;;;;;;;;;28.54;36.47;99238.37;4466847;32;34143;-84
2022/06/06 05:26:22;;;;;;;;;;;;;;;27.75;38.30;99242.03;4468314;32;34340;-84
2022/06/06 05:28:53;;;;;;;;;;;;;;;28.44;37.00;99246.06;4467558;32;34657;-83
2022/06/06 05:31:40;;;;;;;;;;;;;;;27.75;38.27;99247.34;4454518;32;33240;-83
2022/06/06 05:34:13;;;;;;;;;;;;;;;27.05;40.38;99252.03;4468725;32;34901;-83
2022/06/06 05:36:47;;;;;;;;;;;;;;;26.42;41.70;99252.63;4454937;32;33740;-87
2022/06/06 05:39:34;;;;;;;;;;;;;;;26.10;42.38;99245.38;4468018;32;35346;-83
2022/06/06 05:42:04;;;;;;;;;;;;;;;25.79;43.29;99248.69;4468576;32;33735;-84
2022/06/06 05:44:50;;;;;;;;;;;;;;;26.68;41.48;99246.00;4467955;32;34030;-84
2022/06/06 05:47:22;;;;;;;;;;;;;;;26.59;41.58;99242.94;4468184;32;34522;-87
2022/06/06 05:49:49;;;;;;;;;;;;;;;26.97;41.10;99243.59;4468077;32;34478;-83
2022/06/06 05:52:21;;;;;;;;;;;;;;;26.78;42.09;99245.50;4468598;32;33236;-83
2022/06/06 05:54:51;;;;;;;;;;;;;;;26.54;43.10;99240.53;4453812;32;33941;-86
2022/06/06 05:57:28;;;;;;;;;;;;;;;27.11;41.79;99250.88;4468226;32;33860;-85
2022/06/06 06:00:16;;;;;;;;;;;;;;;26.59;43.46;99256.22;4468391;32;34441;-82
2022/06/06 06:02:47;;;;;;;;;;;;;;;26.18;44.57;99254.72;4454866;32;33852;-82
2022/06/06 06:05:33;;;;;;;;;;;;;;;25.89;45.72;99257.94;4468177;32;34889;-84
2022/06/06 06:08:01;;;;;;;;;;;;;;;26.32;44.97;99250.50;4468277;32;34338;-81
2022/06/06 06:10:40;;;;;;;;;;;;;;;26.13;44.97;99254.06;4474262;32;34367;-83
2022/06/06 06:13:14;;;;;;;;;;;;;;;25.66;46.55;99251.91;4469300;32;33654;-83
2022/06/06 06:15:42;;;;;;;;;;;;;;;26.90;44.44;99256.38;4479261;32;34760;-81
2022/06/06 06:18:16;;;;;;;;;;;;;;;27.29;42.71;99255.19;4483709;32;34289;-82
2022/06/06 06:20:45;;;;;;;;;;;;;;;27.57;41.90;99254.53;4482980;32;34348;-82
2022/06/06 06:23:19;;;;;;;;;;;;;;;27.15;43.62;99268.38;4479796;32;34193;-84
2022/06/06 06:25:46;;;;;;;;;;;;;;;26.98;43.56;99268.41;4470175;32;34051;-84
2022/06/06 06:28:14;;;;;;;;;;;;;;;26.94;43.74;99275.69;4469472;32;34529;-83
2022/06/06 06:30:47;;;;;;;;;;;;;;;27.49;40.84;99277.22;4468892;32;35231;-84
2022/06/06 06:33:33;;;;;;;;;;;;;;;27.69;41.61;99273.44;4482827;32;33045;-84
2022/06/06 06:36:00;;;;;;;;;;;;;;;27.06;42.04;99279.50;4482692;32;33800;-82
2022/06/06 06:38:28;;;;;;;;;;;;;;;26.53;41.93;99272.53;4483506;32;35235;-82
2022/06/06 06:41:05;;;;;;;;;;;;;;;26.31;43.96;99276.22;4478069;31;33820;-83
2022/06/06 06:43:32;;;;;;;;;;;;;;;25.97;45.55;99277.03;4483288;31;34588;-83
2022/06/06 06:46:01;;;;;;;;;;;;;;;27.11;43.21;99274.81;4478088;32;33700;-84
2022/06/06 06:48:33;;;;;;;;;;;;;;;27.72;42.16;99279.47;4456291;32;35296;-84
2022/06/06 06:51:17;;;;;;;;;;;;;;;26.98;44.30;99271.06;4469115;32;35351;-83
2022/06/06 06:54:07;;;;;;;;;;;;;;;27.03;43.53;99263.69;4468754;32;33885;-84
2022/06/06 06:56:36;;;;;;;;;;;;;;;27.29;42.42;99265.00;4469840;32;34271;-83
2022/06/06 06:59:06;;;;;;;;;;;;;;;27.30;41.51;99264.03;4475901;32;33828;-84
2022/06/06 07:10:52;;;;;;;;;;;;;;;28.10;37.38;99265.78;4470146;32;33794;-83
2022/06/06 07:13:20;;;;;;;;;;;;;;;27.93;37.29;99268.59;4466057;32;34388;-82
2022/06/06 07:15:55;;;;;;;;;;;;;;;28.12;37.09;99263.91;4477420;32;33498;-83
2022/06/06 07:18:24;;;;;;;;;;;;;;;28.26;35.79;99257.75;4483285;32;34877;-81
2022/06/06 07:20:52;;;;;;;;;;;;;;;27.10;38.39;99276.59;4480335;32;35265;-85
2022/06/06 07:23:21;;;;;;;;;;;;;;;26.99;37.90;99276.31;4463569;32;35389;-84
2022/06/06 07:25:49;;;;;;;;;;;;;;;27.22;37.71;99275.09;4482232;32;33679;-83
2022/06/06 07:28:22;;;;;;;;;;;;;;;27.77;36.51;99271.22;4479989;32;34159;-85
2022/06/06 07:30:56;;;;;;;;;;;;;;;27.77;37.08;99268.56;4467223;32;35040;-84
2022/06/06 07:33:32;;;;;;;;;;;;;;;28.67;35.21;99270.50;4483893;32;34097;-85
2022/06/06 07:36:06;;;;;;;;;;;;;;;28.74;34.37;99270.03;4483408;32;33199;-83
2022/06/06 07:38:51;;;;;;;;;;;;;;;27.57;36.83;99286.50;4481341;32;34719;-83
2022/06/06 07:41:37;;;;;;;;;;;;;;;28.24;35.97;99273.00;4482702;32;34446;-85
2022/06/06 07:44:13;;;;;;;;;;;;;;;27.94;34.35;99279.16;4482203;31;34385;-82
2022/06/06 07:46:56;;;;;;;;;;;;;;;27.73;33.82;99269.66;4480701;32;34221;-83
2022/06/06 07:49:33;;;;;;;;;;;;;;;28.30;35.35;99281.50;4467837;32;34015;-83
2022/06/06 07:52:09;;;;;;;;;;;;;;;28.56;31.15;99276.47;4479365;31;32987;-83
2022/06/06 07:54:42;;;;;;;;;;;;;;;28.62;32.67;99281.44;4470443;32;34353;-82
2022/06/06 07:57:11;;;;;;;;;;;;;;;28.43;31.31;99278.16;4479784;32;33517;-84
2022/06/06 07:59:46;;;;;;;;;;;;;;;28.35;31.08;99273.25;4482802;32;34374;-82
2022/06/06 08:02:13;;;;;;;;;;;;;;;27.23;32.40;99281.28;4473667;32;34354;-84
2022/06/06 08:04:50;;;;;;;;;;;;;;;27.76;30.56;99285.50;4482944;31;34219;-83
2022/06/06 08:07:26;;;;;;;;;;;;;;;27.39;31.08;99282.19;4481275;32;33125;-83
2022/06/06 08:09:54;;;;;;;;;;;;;;;27.04;31.68;99284.91;4465357;32;34104;-84
2022/06/06 08:12:24;;;;;;;;;;;;;;;27.26;31.72;99291.78;4476398;32;34601;-82
2022/06/06 08:15:04;;;;;;;;;;;;;;;28.36;31.66;99285.63;4478930;32;33963;-84
2022/06/06 08:17:41;;;;;;;;;;;;;;;28.57;30.18;99281.72;4465065;32;33903;-82
2022/06/06 08:20:15;;;;;;;;;;;;;;;28.82;30.90;99277.56;4467710;32;35116;-83
2022/06/06 08:22:44;;;;;;;;;;;;;;;28.37;32.61;99287.34;4467395;32;35107;-84
2022/06/06 08:25:13;;;;;;;;;;;;;;;28.27;33.42;99291.50;4467756;31;34741;-82
2022/06/06 08:27:46;;;;;;;;;;;;;;;26.68;34.17;99293.00;4482310;32;34406;-80
2022/06/06 08:30:14;;;;;;;;;;;;;;;28.19;32.58;99285.75;4482797;32;35224;-82
2022/06/06 08:32:45;;;;;;;;;;;;;;;28.12;33.33;99298.56;4479863;32;34185;-84
2022/06/06 08:35:12;;;;;;;;;;;;;;;28.07;34.65;99296.16;4464559;32;34690;-84
2022/06/06 08:37:59;;;;;;;;;;;;;;;27.78;35.20;99294.28;4467020;32;34234;-83
2022/06/06 08:40:44;;;;;;;;;;;;;;;28.40;34.18;99289.00;4465325;32;33827;-81
2022/06/06 08:43:12;;;;;;;;;;;;;;;28.33;34.59;99293.78;4468316;32;33833;-82
2022/06/06 08:46:02;;;;;;;;;;;;;;;27.57;35.71;99302.47;4482945;32;34865;-82
2022/06/06 08:48:39;;;;;;;;;;;;;;;27.42;35.12;99296.19;4445820;32;33604;-82
2022/06/06 08:51:06;;;;;;;;;;;;;;;28.47;32.86;99287.69;4477181;32;34778;-79
2022/06/06 08:53:38;;;;;;;;;;;;;;;29.07;32.48;99291.19;4482666;32;34237;-81
2022/06/06 08:56:24;;;;;;;;;;;;;;;27.63;34.83;99299.47;4482240;32;34239;-83
2022/06/06 08:59:12;;;;;;;;;;;;;;;27.40;35.79;99283.91;4479669;32;33427;-82
2022/06/06 09:01:48;;;;;;;;;;;;;;;27.99;35.42;99285.06;4481872;32;34349;-83
2022/06/06 09:04:21;;;;;;;;;;;;;;;28.14;35.67;99281.53;4482117;32;34480;-81
2022/06/06 09:07:01;;;;;;;;;;;;;;;27.80;36.70;99287.06;4482036;32;34184;-80
2022/06/06 09:09:49;;;;;;;;;;;;;;;28.72;34.65;99289.78;4481891;32;33552;-82
2022/06/06 09:12:36;;;;;;;;;;;;;;;27.81;36.85;99291.47;4482272;32;34270;-80
2022/06/06 09:15:04;;;;;;;;;;;;;;;28.90;35.03;99279.78;4467101;32;34186;-82
2022/06/06 09:17:50;;;;;;;;;;;;;;;28.58;35.49;99286.09;4466295;32;34955;-80
2022/06/06 09:20:25;;;;;;;;;;;;;;;28.66;35.63;99282.13;4478190;32;33201;-81
2022/06/06 09:23:12;;;;;;;;;;;;;;;28.40;37.76;99281.84;4467776;32;34135;-81
2022/06/06 09:25:43;;;;;;;;;;;;;;;28.89;35.26;99276.25;4466864;32;34397;-81
2022/06/06 09:28:11;;;;;;;;;;;;;;;29.25;34.88;99270.50;4466939;32;34494;-79
2022/06/06 09:30:46;;;;;;;;;;;;;;;29.44;33.49;99259.53;4470405;32;33516;-82
2022/06/06 09:33:16;;;;;;;;;;;;;;;28.53;34.61;99256.19;4465926;32;34101;-83
2022/06/06 09:36:02;;;;;;;;;;;;;;;28.95;34.86;99259.88;4475622;32;37110;-81
2022/06/06 09:38:35;;;;;;;;;;;;;;;28.92;33.16;99257.38;4470381;32;35105;-81
2022/06/06 09:41:06;;;;;;;;;;;;;;;29.64;34.13;99254.75;4472399;31;33623;-82
2022/06/06 09:43:53;;;;;;;;;;;;;;;29.16;33.85;99249.69;4481028;32;34083;-82
2022/06/06 09:46:21;;;;;;;;;;;;;;;28.61;35.80;99258.41;4481891;32;35371;-82
2022/06/06 09:48:57;;;;;;;;;;;;;;;29.65;34.03;99257.31;4471792;32;33876;-80
2022/06/06 09:51:34;;;;;;;;;;;;;;;29.66;32.93;99250.16;4478619;31;34181;-84
2022/06/06 09:59:56;;;;;;;;;;;;;;;29.81;33.03;99244.69;4461696;32;34678;-80
2022/06/06 10:02:37;;;;;;;;;;;;;;;29.45;32.26;99234.53;4469950;32;34618;-81
2022/06/06 10:05:10;;;;;;;;;;;;;;;29.32;31.39;99238.91;4463135;32;35135;-82
2022/06/06 10:07:49;;;;;;;;;;;;;;;28.56;31.80;99234.69;4466830;32;34355;-81
2022/06/06 10:10:36;;;;;;;;;;;;;;;29.27;30.83;99238.34;4478404;31;34667;-82
2022/06/06 10:13:07;;;;;;;;;;;;;;;29.20;33.17;99237.03;4479070;32;34339;-81
2022/06/06 10:15:47;;;;;;;;;;;;;;;30.24;29.79;99227.66;4483011;32;33695;-81
2022/06/06 10:18:30;;;;;;;;;;;;;;;30.69;27.87;99217.44;4469673;32;35206;-82
2022/06/06 10:21:12;;;;;;;;;;;;;;;30.39;29.43;99228.44;4481799;32;32743;-84
2022/06/06 10:23:39;;;;;;;;;;;;;;;30.99;26.35;99211.78;4477052;32;33261;-81
2022/06/06 10:26:16;;;;;;;;;;;;;;;29.29;28.53;99234.62;4484294;32;34229;-84
2022/06/06 10:28:44;;;;;;;;;;;;;;;30.29;27.36;99220.16;4470895;32;34154;-82
2022/06/06 10:31:20;;;;;;;;;;;;;;;28.84;29.15;99230.31;4484062;32;35250;-82
2022/06/06 10:34:07;;;;;;;;;;;;;;;30.40;27.42;99217.63;4484008;32;33402;-81
2022/06/06 10:36:44;;;;;;;;;;;;;;;30.02;26.49;99220.16;4480049;32;34252;-84
2022/06/06 10:39:24;;;;;;;;;;;;;;;30.29;26.02;99228.19;4469609;32;33533;-80
2022/06/06 10:42:09;;;;;;;;;;;;;;;30.99;27.20;99222.50;4472353;32;34022;-82
2022/06/06 10:44:56;;;;;;;;;;;;;;;30.87;25.22;99216.16;4473052;32;33602;-84
2022/06/06 10:47:36;;;;;;;;;;;;;;;30.28;26.09;99210.44;4483703;32;33633;-80
2022/06/06 10:50:20;;;;;;;;;;;;;;;30.05;25.20;99212.81;4469085;32;35260;-82
2022/06/06 10:53:02;;;;;;;;;;;;;;;30.89;27.21;99210.72;4469516;32;34543;-80
2022/06/06 10:55:38;;;;;;;;;;;;;;;30.93;24.80;99199.69;4469467;32;33556;-82
2022/06/06 10:58:24;;;;;;;;;;;;;;;30.49;26.06;99200.06;4469259;32;33875;-82
2022/06/06 11:00:58;;;;;;;;;;;;;;;31.22;26.43;99199.44;4483810;32;35302;-83
2022/06/06 11:03:38;;;;;;;;;;;;;;;30.27;26.55;99196.22;4469253;32;34257;-84
2022/06/06 11:06:15;;;;;;;;;;;;;;;30.94;25.89;99200.53;4482746;32;34426;-81
2022/06/06 11:08:48;;;;;;;;;;;;;;;30.18;26.44;99199.50;4457805;32;35752;-81
2022/06/06 11:11:54;;;;;;;;;;;;;;;30.73;25.12;99198.38;4494140;31;35351;-81
2022/06/06 11:14:22;;;;;;;;;;;;;;;30.62;25.53;99195.59;4406212;32;34280;-80
2022/06/06 11:17:12;;;;;;;;;;;;;;;30.95;25.04;99195.09;4402873;32;33156;-82
2022/06/06 11:19:52;;;;;;;;;;;;;;;31.80;23.66;99187.16;4450768;32;33628;-81
2022/06/06 11:22:19;;;;;;;;;;;;;;;31.54;24.75;99198.94;4482744;32;34492;-80
2022/06/06 11:24:52;;;;;;;;;;;;;;;31.31;23.46;99192.59;4482691;32;34341;-82
2022/06/06 11:27:19;;;;;;;;;;;;;;;31.46;24.65;99186.97;4483288;31;33932;-81
2022/06/06 11:29:53;;;;;;;;;;;;;;;30.50;26.20;99196.47;4483652;32;33821;-81
2022/06/06 11:32:39;;;;;;;;;;;;;;;31.70;22.96;99173.56;4482849;32;34302;-82
2022/06/06 11:35:25;;;;;;;;;;;;;;;31.94;23.75;99175.44;4482820;32;35174;-82
2022/06/06 11:38:02;;;;;;;;;;;;;;;31.09;24.51;99185.19;4483843;32;33757;-81
2022/06/06 11:40:29;;;;;;;;;;;;;;;31.48;24.86;99179.69;4483133;32;35140;-86
2022/06/06 11:43:08;;;;;;;;;;;;;;;30.92;24.87;99176.56;4483529;32;34424;-81
2022/06/06 11:45:39;;;;;;;;;;;;;;;31.00;23.58;99184.06;4469349;32;34055;-81
2022/06/06 11:48:12;;;;;;;;;;;;;;;30.54;24.56;99176.53;4477868;32;33856;-80
2022/06/06 11:50:58;;;;;;;;;;;;;;;30.81;25.12;99184.50;4456733;32;34095;-80
2022/06/06 11:53:34;;;;;;;;;;;;;;;31.41;24.99;99177.56;4462284;32;34207;-80
2022/06/06 11:56:04;;;;;;;;;;;;;;;31.71;25.01;99169.09;4466151;32;35314;-80
2022/06/06 11:58:40;;;;;;;;;;;;;;;31.51;25.18;99181.25;4460510;32;33435;-81
2022/06/06 12:01:29;;;;;;;;;;;;;;;32.17;23.40;99161.13;4480065;32;35015;-81
2022/06/06 12:04:11;;;;;;;;;;;;;;;32.07;22.89;99153.91;4450857;32;34474;-80
2022/06/06 12:07:08;;;;;;;;;;;;;;;32.46;23.29;99155.37;4472697;32;34474;-83
2022/06/06 12:09:35;;;;;;;;;;;;;;;32.04;24.91;99146.09;4398057;32;34430;-80
2022/06/06 12:12:21;;;;;;;;;;;;;;;32.61;23.68;99143.44;4467481;32;34254;-81
2022/06/06 12:14:58;;;;;;;;;;;;;;;32.00;24.05;99158.03;4482420;32;34334;-80
2022/06/06 12:17:35;;;;;;;;;;;;;;;31.23;24.21;99153.78;4482802;32;35009;-84
2022/06/06 12:20:14;;;;;;;;;;;;;;;32.11;24.17;99137.44;4481637;32;33675;-83
2022/06/06 12:22:51;;;;;;;;;;;;;;;32.42;24.28;99144.00;4468003;32;33754;-79
2022/06/06 12:25:27;;;;;;;;;;;;;;;32.84;22.31;99138.91;4477261;31;34508;-81
2022/06/06 12:28:06;;;;;;;;;;;;;;;32.53;22.06;99131.59;4482422;32;35196;-79
2022/06/06 12:30:55;;;;;;;;;;;;;;;32.41;23.78;99147.69;4482013;32;34070;-79
2022/06/06 12:33:25;;;;;;;;;;;;;;;32.63;22.89;99137.97;4466877;32;34873;-80
2022/06/06 12:35:55;;;;;;;;;;;;;;;32.74;22.85;99127.22;4482126;32;34481;-85
2022/06/06 12:38:26;;;;;;;;;;;;;;;31.69;24.08;99123.63;4482244;32;35103;-82
2022/06/06 12:40:56;;;;;;;;;;;;;;;31.24;24.43;99133.22;4469136;32;34433;-79
2022/06/06 12:43:24;;;;;;;;;;;;;;;32.52;23.34;99121.84;4482466;32;34841;-82
2022/06/06 12:46:02;;;;;;;;;;;;;;;32.43;23.61;99116.22;4481971;32;34430;-80
2022/06/06 12:48:30;;;;;;;;;;;;;;;32.31;23.98;99125.19;4468611;32;34615;-80
2022/06/06 12:51:03;;;;;;;;;;;;;;;32.30;23.68;99120.78;4481838;32;33561;-83
2022/06/06 12:53:35;;;;;;;;;;;;;;;32.04;23.29;99127.31;4482418;32;34933;-81
2022/06/06 12:59:09;;;;;;;;;;;;;;;32.11;23.52;99120.50;4468906;32;34430;-81
2022/06/06 13:01:50;;;;;;;;;;;;;;;33.04;23.04;99117.72;4458085;32;33253;-80
2022/06/06 13:04:41;;;;;;;;;;;;;;;32.84;22.61;99114.75;4482722;32;33455;-81
2022/06/06 13:07:20;;;;;;;;;;;;;;;32.09;23.76;99117.97;4482578;32;33866;-81
2022/06/06 13:10:08;;;;;;;;;;;;;;;32.22;23.68;99113.34;4482534;32;34388;-80
2022/06/06 13:12:47;;;;;;;;;;;;;;;32.13;22.78;99114.06;4468201;32;34056;-80
2022/06/06 13:15:28;;;;;;;;;;;;;;;32.38;22.60;99101.41;4480233;32;34108;-79
2022/06/06 13:18:01;;;;;;;;;;;;;;;32.81;22.32;99101.59;4470485;32;35351;-79
2022/06/06 13:20:49;;;;;;;;;;;;;;;32.00;22.64;99104.38;4482597;32;34522;-81
2022/06/06 13:23:16;;;;;;;;;;;;;;;30.73;24.96;99106.53;4481034;32;34432;-80
2022/06/06 13:25:58;;;;;;;;;;;;;;;31.05;24.24;99100.72;4481590;32;35088;-79
2022/06/06 13:28:26;;;;;;;;;;;;;;;31.78;25.19;99105.97;4460860;32;35353;-81
2022/06/06 13:30:59;;;;;;;;;;;;;;;31.84;25.10;99110.88;4475100;32;34437;-81
2022/06/06 13:33:33;;;;;;;;;;;;;;;31.91;24.01;99103.28;4467681;32;33614;-82
2022/06/06 13:36:04;;;;;;;;;;;;;;;32.26;23.21;99092.50;4467216;32;35774;-81
2022/06/06 13:38:31;;;;;;;;;;;;;;;32.97;22.84;99093.19;4468238;32;35314;-82
2022/06/06 13:41:04;;;;;;;;;;;;;;;33.01;21.87;99099.16;4480531;32;34536;-81
2022/06/06 13:43:41;;;;;;;;;;;;;;;32.59;22.71;99101.59;4481956;32;33814;-81
2022/06/06 13:46:27;;;;;;;;;;;;;;;32.30;22.85;99103.84;4483542;32;34284;-84
2022/06/06 13:49:13;;;;;;;;;;;;;;;31.70;23.85;99100.34;4475095;32;34414;-83
2022/06/06 13:51:45;;;;;;;;;;;;;;;31.88;23.27;99099.00;4468387;32;34102;-82